WSSS/SIN METAR and TAF weather

Enter ICAO airport designator
Station Type Date Time Source
WSSS METAR 2019/02/16 17:30 UTC NOAA

WSSS 161730Z 06007KT 9999 FEW018 SCT080 BKN160 27/24 Q1013 NOSIG


Station Type Date Time Source
WSSS Decoded METAR 2019/02/16 17:30 UTC NOAA

Singapore / Changi Airport, Singapore (WSSS) 01-22N 103-59E 16M
Feb 16, 2019 - 12:30 PM EST / 2019.02.16 1730 UTC
Wind: from the ENE (060 degrees) at 8 MPH (7 KT):0
Visibility: greater than 7 mile(s):0
Sky conditions: mostly cloudy
Temperature: 80 F (27 C)
Dew Point: 75 F (24 C)
Relative Humidity: 83%
Pressure (altimeter): 29.91 in. Hg (1013 hPa)
ob: WSSS 161730Z 06007KT 9999 FEW018 SCT080 BKN160 27/24 Q1013 NOSIG
cycle: 17

Station Type Date Time Source
WSSS TAF 2019/02/16 18:12 UTC NOAA

TAF WSSS 161700Z 1618/1800 02008KT 9999 SCT020
TEMPO 1708/1711 2000 TSRA FEW012CB BKN015


Example: see airport list